sensor_id;sensor_type;location;lat;lon;timestamp;P1;durP1;ratioP1;P2;durP2;ratioP2
71187;SDS011;58893;53.130;8.158;2023-03-19T00:01:54;5.90;;;4.10;;
71187;SDS011;58893;53.130;8.158;2023-03-19T00:04:20;5.50;;;3.83;;
71187;SDS011;58893;53.130;8.158;2023-03-19T00:06:48;4.10;;;3.10;;
71187;SDS011;58893;53.130;8.158;2023-03-19T00:09:14;4.20;;;3.07;;
71187;SDS011;58893;53.130;8.158;2023-03-19T00:11:39;6.63;;;3.80;;
71187;SDS011;58893;53.130;8.158;2023-03-19T00:14:05;4.63;;;3.23;;
71187;SDS011;58893;53.130;8.158;2023-03-19T00:16:31;6.60;;;3.50;;
71187;SDS011;58893;53.130;8.158;2023-03-19T00:18:56;5.23;;;3.23;;
71187;SDS011;58893;53.130;8.158;2023-03-19T00:21:22;5.30;;;3.10;;
71187;SDS011;58893;53.130;8.158;2023-03-19T00:23:48;4.33;;;3.20;;
71187;SDS011;58893;53.130;8.158;2023-03-19T00:26:13;7.97;;;2.83;;
71187;SDS011;58893;53.130;8.158;2023-03-19T00:28:39;6.30;;;2.73;;
71187;SDS011;58893;53.130;8.158;2023-03-19T00:31:06;5.93;;;2.80;;
71187;SDS011;58893;53.130;8.158;2023-03-19T00:33:36;3.17;;;2.70;;
71187;SDS011;58893;53.130;8.158;2023-03-19T00:36:02;2.70;;;2.50;;
71187;SDS011;58893;53.130;8.158;2023-03-19T00:38:29;3.97;;;2.97;;
71187;SDS011;58893;53.130;8.158;2023-03-19T00:40:56;5.57;;;3.40;;
71187;SDS011;58893;53.130;8.158;2023-03-19T00:43:21;4.50;;;3.30;;
71187;SDS011;58893;53.130;8.158;2023-03-19T00:45:47;3.43;;;2.97;;
71187;SDS011;58893;53.130;8.158;2023-03-19T00:48:13;4.80;;;3.00;;
71187;SDS011;58893;53.130;8.158;2023-03-19T00:50:38;4.60;;;2.87;;
71187;SDS011;58893;53.130;8.158;2023-03-19T00:53:04;3.97;;;2.63;;
71187;SDS011;58893;53.130;8.158;2023-03-19T00:55:30;4.50;;;3.03;;
71187;SDS011;58893;53.130;8.158;2023-03-19T00:57:55;3.27;;;2.90;;
71187;SDS011;58893;53.130;8.158;2023-03-19T01:00:21;5.30;;;3.00;;
71187;SDS011;58893;53.130;8.158;2023-03-19T01:02:47;5.20;;;3.63;;
71187;SDS011;58893;53.130;8.158;2023-03-19T01:05:13;5.20;;;3.93;;
71187;SDS011;58893;53.130;8.158;2023-03-19T01:07:39;4.23;;;2.67;;
71187;SDS011;58893;53.130;8.158;2023-03-19T01:10:05;3.17;;;2.80;;
71187;SDS011;58893;53.130;8.158;2023-03-19T01:12:31;5.17;;;3.10;;
71187;SDS011;58893;53.130;8.158;2023-03-19T01:14:58;3.90;;;2.97;;
71187;SDS011;58893;53.130;8.158;2023-03-19T01:17:23;4.30;;;2.87;;
71187;SDS011;58893;53.130;8.158;2023-03-19T01:19:49;4.63;;;3.30;;
71187;SDS011;58893;53.130;8.158;2023-03-19T01:22:15;4.23;;;3.27;;
71187;SDS011;58893;53.130;8.158;2023-03-19T01:24:41;5.43;;;3.17;;
71187;SDS011;58893;53.130;8.158;2023-03-19T01:27:07;4.33;;;3.00;;
71187;SDS011;58893;53.130;8.158;2023-03-19T01:29:33;3.67;;;2.83;;
71187;SDS011;58893;53.130;8.158;2023-03-19T01:31:59;4.60;;;3.43;;
71187;SDS011;58893;53.130;8.158;2023-03-19T01:34:25;9.93;;;3.57;;
71187;SDS011;58893;53.130;8.158;2023-03-19T01:36:51;5.87;;;3.30;;
71187;SDS011;58893;53.130;8.158;2023-03-19T01:39:17;3.80;;;2.90;;
71187;SDS011;58893;53.130;8.158;2023-03-19T01:41:42;5.43;;;3.47;;
71187;SDS011;58893;53.130;8.158;2023-03-19T01:47:10;5.30;;;3.73;;
71187;SDS011;58893;53.130;8.158;2023-03-19T01:49:58;4.60;;;3.97;;
71187;SDS011;58893;53.130;8.158;2023-03-19T01:52:25;6.07;;;3.87;;
71187;SDS011;58893;53.130;8.158;2023-03-19T01:54:55;7.17;;;4.10;;
71187;SDS011;58893;53.130;8.158;2023-03-19T01:57:23;5.60;;;3.90;;
71187;SDS011;58893;53.130;8.158;2023-03-19T01:59:50;6.80;;;3.53;;
71187;SDS011;58893;53.130;8.158;2023-03-19T02:04:57;5.00;;;3.60;;
71187;SDS011;58893;53.130;8.158;2023-03-19T02:07:36;4.10;;;3.70;;
71187;SDS011;58893;53.130;8.158;2023-03-19T02:10:04;4.40;;;3.10;;
71187;SDS011;58893;53.130;8.158;2023-03-19T02:12:33;3.83;;;3.03;;
71187;SDS011;58893;53.130;8.158;2023-03-19T02:14:58;4.20;;;3.23;;
71187;SDS011;58893;53.130;8.158;2023-03-19T02:17:25;5.93;;;3.80;;
71187;SDS011;58893;53.130;8.158;2023-03-19T02:22:22;5.10;;;3.63;;
71187;SDS011;58893;53.130;8.158;2023-03-19T02:24:58;6.00;;;3.77;;
71187;SDS011;58893;53.130;8.158;2023-03-19T02:27:38;5.30;;;3.87;;
71187;SDS011;58893;53.130;8.158;2023-03-19T02:30:18;3.73;;;3.20;;
71187;SDS011;58893;53.130;8.158;2023-03-19T02:32:55;4.80;;;3.43;;
71187;SDS011;58893;53.130;8.158;2023-03-19T02:35:20;6.40;;;4.20;;
71187;SDS011;58893;53.130;8.158;2023-03-19T02:37:46;6.10;;;3.90;;
71187;SDS011;58893;53.130;8.158;2023-03-19T02:40:19;7.10;;;4.27;;
71187;SDS011;58893;53.130;8.158;2023-03-19T02:42:48;4.80;;;3.23;;
71187;SDS011;58893;53.130;8.158;2023-03-19T02:45:14;7.40;;;3.90;;
71187;SDS011;58893;53.130;8.158;2023-03-19T02:47:40;6.13;;;4.20;;
71187;SDS011;58893;53.130;8.158;2023-03-19T02:50:06;6.53;;;4.20;;
71187;SDS011;58893;53.130;8.158;2023-03-19T02:52:32;4.70;;;3.67;;
71187;SDS011;58893;53.130;8.158;2023-03-19T02:54:58;6.90;;;3.70;;
71187;SDS011;58893;53.130;8.158;2023-03-19T02:57:24;5.13;;;3.87;;
71187;SDS011;58893;53.130;8.158;2023-03-19T02:59:50;6.00;;;3.83;;
71187;SDS011;58893;53.130;8.158;2023-03-19T03:02:15;6.97;;;4.23;;
71187;SDS011;58893;53.130;8.158;2023-03-19T03:04:41;12.90;;;4.77;;
71187;SDS011;58893;53.130;8.158;2023-03-19T03:07:07;6.13;;;3.90;;
71187;SDS011;58893;53.130;8.158;2023-03-19T03:09:33;5.50;;;3.90;;
71187;SDS011;58893;53.130;8.158;2023-03-19T03:11:59;6.13;;;4.73;;
71187;SDS011;58893;53.130;8.158;2023-03-19T03:14:24;6.67;;;4.23;;
71187;SDS011;58893;53.130;8.158;2023-03-19T03:16:50;6.03;;;4.30;;
71187;SDS011;58893;53.130;8.158;2023-03-19T03:19:16;5.10;;;4.10;;
71187;SDS011;58893;53.130;8.158;2023-03-19T03:21:42;9.90;;;5.00;;
71187;SDS011;58893;53.130;8.158;2023-03-19T03:24:07;10.57;;;4.73;;
71187;SDS011;58893;53.130;8.158;2023-03-19T03:26:34;6.00;;;4.73;;
71187;SDS011;58893;53.130;8.158;2023-03-19T03:29:02;8.13;;;5.07;;
71187;SDS011;58893;53.130;8.158;2023-03-19T03:31:31;7.10;;;4.93;;
71187;SDS011;58893;53.130;8.158;2023-03-19T03:33:58;6.00;;;4.60;;
71187;SDS011;58893;53.130;8.158;2023-03-19T03:36:24;11.60;;;5.07;;
71187;SDS011;58893;53.130;8.158;2023-03-19T03:38:51;8.33;;;4.53;;
71187;SDS011;58893;53.130;8.158;2023-03-19T03:41:17;8.30;;;6.13;;
71187;SDS011;58893;53.130;8.158;2023-03-19T03:43:43;9.50;;;5.93;;
71187;SDS011;58893;53.130;8.158;2023-03-19T03:46:08;7.23;;;4.37;;
71187;SDS011;58893;53.130;8.158;2023-03-19T03:48:34;9.37;;;5.60;;
71187;SDS011;58893;53.130;8.158;2023-03-19T03:51:00;8.00;;;5.63;;
71187;SDS011;58893;53.130;8.158;2023-03-19T03:53:27;12.23;;;6.13;;
71187;SDS011;58893;53.130;8.158;2023-03-19T03:55:52;7.73;;;5.37;;
71187;SDS011;58893;53.130;8.158;2023-03-19T03:58:18;9.87;;;6.17;;
71187;SDS011;58893;53.130;8.158;2023-03-19T04:00:44;9.83;;;5.90;;
71187;SDS011;58893;53.130;8.158;2023-03-19T04:03:12;9.73;;;5.70;;
71187;SDS011;58893;53.130;8.158;2023-03-19T04:05:37;9.23;;;5.57;;
71187;SDS011;58893;53.130;8.158;2023-03-19T04:08:03;11.10;;;6.40;;
71187;SDS011;58893;53.130;8.158;2023-03-19T04:10:29;11.50;;;6.43;;
71187;SDS011;58893;53.130;8.158;2023-03-19T04:12:55;9.23;;;6.03;;
71187;SDS011;58893;53.130;8.158;2023-03-19T04:15:21;8.63;;;6.47;;
71187;SDS011;58893;53.130;8.158;2023-03-19T04:17:47;10.07;;;6.40;;
71187;SDS011;58893;53.130;8.158;2023-03-19T04:20:13;9.90;;;6.63;;
71187;SDS011;58893;53.130;8.158;2023-03-19T04:22:42;15.17;;;8.27;;
71187;SDS011;58893;53.130;8.158;2023-03-19T04:25:08;9.13;;;6.07;;
71187;SDS011;58893;53.130;8.158;2023-03-19T04:27:34;9.90;;;6.27;;
71187;SDS011;58893;53.130;8.158;2023-03-19T04:30:00;9.40;;;6.97;;
71187;SDS011;58893;53.130;8.158;2023-03-19T04:32:26;11.67;;;6.97;;
71187;SDS011;58893;53.130;8.158;2023-03-19T04:34:52;12.70;;;6.70;;
71187;SDS011;58893;53.130;8.158;2023-03-19T04:37:17;11.37;;;7.10;;
71187;SDS011;58893;53.130;8.158;2023-03-19T04:39:43;14.70;;;7.53;;
71187;SDS011;58893;53.130;8.158;2023-03-19T04:42:09;11.77;;;7.90;;
71187;SDS011;58893;53.130;8.158;2023-03-19T04:44:35;17.70;;;8.27;;
71187;SDS011;58893;53.130;8.158;2023-03-19T04:47:01;12.00;;;7.27;;
71187;SDS011;58893;53.130;8.158;2023-03-19T04:49:27;16.33;;;8.30;;
71187;SDS011;58893;53.130;8.158;2023-03-19T04:51:55;10.90;;;6.40;;
71187;SDS011;58893;53.130;8.158;2023-03-19T04:54:22;18.00;;;8.40;;
71187;SDS011;58893;53.130;8.158;2023-03-19T04:56:48;14.87;;;8.27;;
71187;SDS011;58893;53.130;8.158;2023-03-19T04:59:15;12.77;;;8.77;;
71187;SDS011;58893;53.130;8.158;2023-03-19T05:01:41;11.87;;;7.53;;
71187;SDS011;58893;53.130;8.158;2023-03-19T05:04:07;13.47;;;8.30;;
71187;SDS011;58893;53.130;8.158;2023-03-19T05:06:33;13.43;;;8.70;;
71187;SDS011;58893;53.130;8.158;2023-03-19T05:09:00;17.10;;;9.23;;
71187;SDS011;58893;53.130;8.158;2023-03-19T05:11:26;11.87;;;8.03;;
71187;SDS011;58893;53.130;8.158;2023-03-19T05:13:52;14.97;;;8.20;;
71187;SDS011;58893;53.130;8.158;2023-03-19T05:16:18;18.03;;;8.00;;
71187;SDS011;58893;53.130;8.158;2023-03-19T05:18:44;13.03;;;8.47;;
71187;SDS011;58893;53.130;8.158;2023-03-19T05:21:11;11.90;;;7.27;;
71187;SDS011;58893;53.130;8.158;2023-03-19T05:23:37;11.80;;;7.80;;
71187;SDS011;58893;53.130;8.158;2023-03-19T05:26:04;16.13;;;9.40;;
71187;SDS011;58893;53.130;8.158;2023-03-19T05:28:30;13.00;;;8.10;;
71187;SDS011;58893;53.130;8.158;2023-03-19T05:30:56;20.00;;;8.37;;
71187;SDS011;58893;53.130;8.158;2023-03-19T05:33:22;21.50;;;8.33;;
71187;SDS011;58893;53.130;8.158;2023-03-19T05:35:48;13.57;;;8.50;;
71187;SDS011;58893;53.130;8.158;2023-03-19T05:38:13;17.60;;;9.00;;
71187;SDS011;58893;53.130;8.158;2023-03-19T05:40:39;14.70;;;8.70;;
71187;SDS011;58893;53.130;8.158;2023-03-19T05:43:09;18.33;;;9.00;;
71187;SDS011;58893;53.130;8.158;2023-03-19T05:45:36;16.87;;;9.67;;
71187;SDS011;58893;53.130;8.158;2023-03-19T05:48:02;15.87;;;8.20;;
71187;SDS011;58893;53.130;8.158;2023-03-19T05:50:28;13.80;;;8.23;;
71187;SDS011;58893;53.130;8.158;2023-03-19T05:52:55;13.27;;;7.83;;
71187;SDS011;58893;53.130;8.158;2023-03-19T05:55:22;16.17;;;8.07;;
71187;SDS011;58893;53.130;8.158;2023-03-19T05:57:48;13.43;;;8.37;;
71187;SDS011;58893;53.130;8.158;2023-03-19T06:00:13;17.43;;;9.10;;
71187;SDS011;58893;53.130;8.158;2023-03-19T06:02:40;12.97;;;7.80;;
71187;SDS011;58893;53.130;8.158;2023-03-19T06:05:07;16.50;;;9.03;;
71187;SDS011;58893;53.130;8.158;2023-03-19T06:07:34;15.17;;;8.53;;
71187;SDS011;58893;53.130;8.158;2023-03-19T06:10:00;15.37;;;9.70;;
71187;SDS011;58893;53.130;8.158;2023-03-19T06:12:26;13.67;;;8.73;;
71187;SDS011;58893;53.130;8.158;2023-03-19T06:14:52;13.40;;;8.27;;
71187;SDS011;58893;53.130;8.158;2023-03-19T06:17:18;17.13;;;8.67;;
71187;SDS011;58893;53.130;8.158;2023-03-19T06:19:44;12.87;;;8.27;;
71187;SDS011;58893;53.130;8.158;2023-03-19T06:22:10;11.40;;;7.63;;
71187;SDS011;58893;53.130;8.158;2023-03-19T06:24:36;17.83;;;8.20;;
71187;SDS011;58893;53.130;8.158;2023-03-19T06:27:01;13.77;;;8.80;;
71187;SDS011;58893;53.130;8.158;2023-03-19T06:29:27;19.47;;;9.80;;
71187;SDS011;58893;53.130;8.158;2023-03-19T06:31:53;13.50;;;8.83;;
71187;SDS011;58893;53.130;8.158;2023-03-19T06:34:19;18.97;;;9.10;;
71187;SDS011;58893;53.130;8.158;2023-03-19T06:36:44;15.33;;;9.50;;
71187;SDS011;58893;53.130;8.158;2023-03-19T06:39:10;16.73;;;8.93;;
71187;SDS011;58893;53.130;8.158;2023-03-19T06:41:36;14.27;;;8.80;;
71187;SDS011;58893;53.130;8.158;2023-03-19T06:44:02;12.50;;;8.27;;
71187;SDS011;58893;53.130;8.158;2023-03-19T06:46:28;11.80;;;8.50;;
71187;SDS011;58893;53.130;8.158;2023-03-19T06:48:54;12.67;;;8.90;;
71187;SDS011;58893;53.130;8.158;2023-03-19T06:51:20;14.80;;;9.20;;
71187;SDS011;58893;53.130;8.158;2023-03-19T06:53:45;16.80;;;8.93;;
71187;SDS011;58893;53.130;8.158;2023-03-19T06:56:11;21.53;;;11.07;;
71187;SDS011;58893;53.130;8.158;2023-03-19T06:58:37;16.27;;;9.37;;
71187;SDS011;58893;53.130;8.158;2023-03-19T07:01:03;19.23;;;10.60;;
71187;SDS011;58893;53.130;8.158;2023-03-19T07:03:29;16.97;;;10.83;;
71187;SDS011;58893;53.130;8.158;2023-03-19T07:05:55;23.10;;;10.23;;
71187;SDS011;58893;53.130;8.158;2023-03-19T07:08:21;22.03;;;10.20;;
71187;SDS011;58893;53.130;8.158;2023-03-19T07:10:46;25.23;;;10.53;;
71187;SDS011;58893;53.130;8.158;2023-03-19T07:13:12;15.77;;;9.90;;
71187;SDS011;58893;53.130;8.158;2023-03-19T07:15:38;20.67;;;11.80;;
71187;SDS011;58893;53.130;8.158;2023-03-19T07:18:04;16.13;;;9.87;;
71187;SDS011;58893;53.130;8.158;2023-03-19T07:20:30;18.00;;;10.27;;
71187;SDS011;58893;53.130;8.158;2023-03-19T07:22:56;15.37;;;10.03;;
71187;SDS011;58893;53.130;8.158;2023-03-19T07:25:21;18.03;;;10.27;;
71187;SDS011;58893;53.130;8.158;2023-03-19T07:27:47;17.70;;;11.40;;
71187;SDS011;58893;53.130;8.158;2023-03-19T07:30:13;22.50;;;10.60;;
71187;SDS011;58893;53.130;8.158;2023-03-19T07:32:39;20.57;;;11.83;;
71187;SDS011;58893;53.130;8.158;2023-03-19T07:35:05;18.83;;;11.33;;
71187;SDS011;58893;53.130;8.158;2023-03-19T07:37:32;20.97;;;10.80;;
71187;SDS011;58893;53.130;8.158;2023-03-19T07:39:57;20.37;;;11.57;;
71187;SDS011;58893;53.130;8.158;2023-03-19T07:42:23;28.40;;;11.17;;
71187;SDS011;58893;53.130;8.158;2023-03-19T07:44:49;17.57;;;10.97;;
71187;SDS011;58893;53.130;8.158;2023-03-19T07:47:15;16.30;;;10.73;;
71187;SDS011;58893;53.130;8.158;2023-03-19T07:49:41;22.90;;;11.23;;
71187;SDS011;58893;53.130;8.158;2023-03-19T07:52:06;23.93;;;12.00;;
71187;SDS011;58893;53.130;8.158;2023-03-19T07:54:33;18.50;;;11.17;;
71187;SDS011;58893;53.130;8.158;2023-03-19T07:56:58;15.60;;;10.77;;
71187;SDS011;58893;53.130;8.158;2023-03-19T07:59:24;27.30;;;11.70;;
71187;SDS011;58893;53.130;8.158;2023-03-19T08:01:50;15.00;;;10.30;;
71187;SDS011;58893;53.130;8.158;2023-03-19T08:04:16;18.27;;;11.47;;
71187;SDS011;58893;53.130;8.158;2023-03-19T08:06:41;18.07;;;10.70;;
71187;SDS011;58893;53.130;8.158;2023-03-19T08:09:07;16.30;;;10.13;;
71187;SDS011;58893;53.130;8.158;2023-03-19T08:11:33;16.47;;;10.77;;
71187;SDS011;58893;53.130;8.158;2023-03-19T08:13:59;20.53;;;11.40;;
71187;SDS011;58893;53.130;8.158;2023-03-19T08:16:25;21.50;;;11.00;;
71187;SDS011;58893;53.130;8.158;2023-03-19T08:18:51;15.40;;;10.00;;
71187;SDS011;58893;53.130;8.158;2023-03-19T08:21:17;19.03;;;10.77;;
71187;SDS011;58893;53.130;8.158;2023-03-19T08:23:42;21.93;;;10.87;;
71187;SDS011;58893;53.130;8.158;2023-03-19T08:26:08;13.73;;;9.60;;
71187;SDS011;58893;53.130;8.158;2023-03-19T08:28:34;16.80;;;9.73;;
71187;SDS011;58893;53.130;8.158;2023-03-19T08:31:09;15.67;;;10.33;;
71187;SDS011;58893;53.130;8.158;2023-03-19T08:33:36;12.73;;;8.93;;
71187;SDS011;58893;53.130;8.158;2023-03-19T08:36:12;22.07;;;9.90;;
71187;SDS011;58893;53.130;8.158;2023-03-19T08:38:38;15.40;;;9.17;;
71187;SDS011;58893;53.130;8.158;2023-03-19T08:41:04;13.97;;;9.43;;
71187;SDS011;58893;53.130;8.158;2023-03-19T08:43:30;16.50;;;9.67;;
71187;SDS011;58893;53.130;8.158;2023-03-19T08:45:58;19.40;;;9.37;;
71187;SDS011;58893;53.130;8.158;2023-03-19T08:48:24;14.13;;;9.30;;
71187;SDS011;58893;53.130;8.158;2023-03-19T08:50:55;17.97;;;10.00;;
71187;SDS011;58893;53.130;8.158;2023-03-19T08:53:22;13.73;;;8.80;;
71187;SDS011;58893;53.130;8.158;2023-03-19T08:55:55;13.93;;;8.40;;
71187;SDS011;58893;53.130;8.158;2023-03-19T08:58:23;16.50;;;9.60;;
71187;SDS011;58893;53.130;8.158;2023-03-19T09:00:49;15.30;;;9.50;;
71187;SDS011;58893;53.130;8.158;2023-03-19T09:03:15;12.90;;;8.80;;
71187;SDS011;58893;53.130;8.158;2023-03-19T09:05:41;15.57;;;9.17;;
71187;SDS011;58893;53.130;8.158;2023-03-19T09:08:07;15.00;;;10.17;;
71187;SDS011;58893;53.130;8.158;2023-03-19T09:10:33;14.43;;;8.53;;
71187;SDS011;58893;53.130;8.158;2023-03-19T09:12:59;17.13;;;8.83;;
71187;SDS011;58893;53.130;8.158;2023-03-19T09:15:25;17.17;;;9.20;;
71187;SDS011;58893;53.130;8.158;2023-03-19T09:17:51;13.70;;;8.90;;
71187;SDS011;58893;53.130;8.158;2023-03-19T09:20:17;15.80;;;8.73;;
71187;SDS011;58893;53.130;8.158;2023-03-19T09:22:43;13.07;;;8.43;;
71187;SDS011;58893;53.130;8.158;2023-03-19T09:25:09;10.90;;;7.77;;
71187;SDS011;58893;53.130;8.158;2023-03-19T09:27:35;15.70;;;9.50;;
71187;SDS011;58893;53.130;8.158;2023-03-19T09:30:01;12.47;;;9.10;;
71187;SDS011;58893;53.130;8.158;2023-03-19T09:32:26;12.87;;;9.07;;
71187;SDS011;58893;53.130;8.158;2023-03-19T09:34:52;15.00;;;8.40;;
71187;SDS011;58893;53.130;8.158;2023-03-19T09:37:18;16.57;;;9.33;;
71187;SDS011;58893;53.130;8.158;2023-03-19T09:39:43;14.93;;;8.60;;
71187;SDS011;58893;53.130;8.158;2023-03-19T09:44:55;14.47;;;9.47;;
71187;SDS011;58893;53.130;8.158;2023-03-19T09:49:56;12.53;;;8.30;;
71187;SDS011;58893;53.130;8.158;2023-03-19T09:52:43;13.53;;;8.80;;
71187;SDS011;58893;53.130;8.158;2023-03-19T09:57:42;21.50;;;9.63;;
71187;SDS011;58893;53.130;8.158;2023-03-19T10:00:24;14.73;;;8.03;;
71187;SDS011;58893;53.130;8.158;2023-03-19T10:10:49;14.80;;;8.70;;
71187;SDS011;58893;53.130;8.158;2023-03-19T10:13:37;12.90;;;8.90;;
71187;SDS011;58893;53.130;8.158;2023-03-19T10:16:21;15.23;;;9.87;;
71187;SDS011;58893;53.130;8.158;2023-03-19T10:18:49;21.97;;;9.53;;
71187;SDS011;58893;53.130;8.158;2023-03-19T10:21:22;23.80;;;9.97;;
71187;SDS011;58893;53.130;8.158;2023-03-19T10:26:37;18.00;;;8.90;;
71187;SDS011;58893;53.130;8.158;2023-03-19T10:29:19;25.30;;;10.07;;
71187;SDS011;58893;53.130;8.158;2023-03-19T10:34:40;15.53;;;9.93;;
71187;SDS011;58893;53.130;8.158;2023-03-19T10:37:25;24.13;;;12.50;;
71187;SDS011;58893;53.130;8.158;2023-03-19T10:39:56;22.33;;;12.70;;
71187;SDS011;58893;53.130;8.158;2023-03-19T10:45:30;22.37;;;11.90;;
71187;SDS011;58893;53.130;8.158;2023-03-19T10:47:57;20.50;;;11.63;;
71187;SDS011;58893;53.130;8.158;2023-03-19T10:50:34;26.30;;;11.83;;
71187;SDS011;58893;53.130;8.158;2023-03-19T10:55:37;24.43;;;12.10;;
71187;SDS011;58893;53.130;8.158;2023-03-19T11:00:54;23.07;;;13.07;;
71187;SDS011;58893;53.130;8.158;2023-03-19T11:03:29;23.80;;;12.60;;
71187;SDS011;58893;53.130;8.158;2023-03-19T11:08:59;24.43;;;13.23;;
71187;SDS011;58893;53.130;8.158;2023-03-19T11:11:34;24.40;;;12.30;;
71187;SDS011;58893;53.130;8.158;2023-03-19T11:14:07;26.10;;;12.30;;
71187;SDS011;58893;53.130;8.158;2023-03-19T11:16:54;18.50;;;11.83;;
71187;SDS011;58893;53.130;8.158;2023-03-19T11:19:32;21.00;;;11.40;;
71187;SDS011;58893;53.130;8.158;2023-03-19T11:24:39;20.97;;;10.67;;
71187;SDS011;58893;53.130;8.158;2023-03-19T11:27:07;17.80;;;10.43;;
71187;SDS011;58893;53.130;8.158;2023-03-19T11:29:38;24.87;;;11.27;;
71187;SDS011;58893;53.130;8.158;2023-03-19T11:34:57;19.03;;;10.33;;
71187;SDS011;58893;53.130;8.158;2023-03-19T11:40:19;15.53;;;10.07;;
71187;SDS011;58893;53.130;8.158;2023-03-19T11:48:46;17.63;;;10.23;;
71187;SDS011;58893;53.130;8.158;2023-03-19T11:51:18;20.63;;;10.13;;
71187;SDS011;58893;53.130;8.158;2023-03-19T11:59:17;17.90;;;10.70;;
71187;SDS011;58893;53.130;8.158;2023-03-19T12:07:47;17.33;;;10.50;;
71187;SDS011;58893;53.130;8.158;2023-03-19T12:12:59;21.77;;;10.37;;
71187;SDS011;58893;53.130;8.158;2023-03-19T12:19:07;12.70;;;8.43;;
71187;SDS011;58893;53.130;8.158;2023-03-19T12:21:29;17.57;;;9.30;;
71187;SDS011;58893;53.130;8.158;2023-03-19T12:24:15;12.97;;;8.07;;
71187;SDS011;58893;53.130;8.158;2023-03-19T12:35:03;13.63;;;6.97;;
71187;SDS011;58893;53.130;8.158;2023-03-19T12:37:45;14.67;;;7.80;;
71187;SDS011;58893;53.130;8.158;2023-03-19T12:40:30;12.20;;;7.20;;
71187;SDS011;58893;53.130;8.158;2023-03-19T12:43:03;12.30;;;6.17;;
71187;SDS011;58893;53.130;8.158;2023-03-19T12:45:40;9.80;;;5.73;;
71187;SDS011;58893;53.130;8.158;2023-03-19T12:48:18;14.40;;;5.90;;
71187;SDS011;58893;53.130;8.158;2023-03-19T12:50:51;10.57;;;5.83;;
71187;SDS011;58893;53.130;8.158;2023-03-19T12:53:33;9.87;;;5.57;;
71187;SDS011;58893;53.130;8.158;2023-03-19T12:56:42;13.30;;;6.40;;
71187;SDS011;58893;53.130;8.158;2023-03-19T12:59:46;10.03;;;4.60;;
71187;SDS011;58893;53.130;8.158;2023-03-19T13:02:29;8.37;;;5.40;;
71187;SDS011;58893;53.130;8.158;2023-03-19T13:05:22;7.20;;;4.90;;
71187;SDS011;58893;53.130;8.158;2023-03-19T13:08:19;7.10;;;4.60;;
71187;SDS011;58893;53.130;8.158;2023-03-19T13:11:16;7.27;;;4.00;;
71187;SDS011;58893;53.130;8.158;2023-03-19T13:14:29;10.27;;;5.30;;
71187;SDS011;58893;53.130;8.158;2023-03-19T13:23:01;8.90;;;4.97;;
71187;SDS011;58893;53.130;8.158;2023-03-19T13:25:38;10.30;;;5.90;;
71187;SDS011;58893;53.130;8.158;2023-03-19T13:28:10;9.00;;;5.47;;
71187;SDS011;58893;53.130;8.158;2023-03-19T13:30:57;7.77;;;4.83;;
71187;SDS011;58893;53.130;8.158;2023-03-19T13:33:47;7.70;;;4.60;;
71187;SDS011;58893;53.130;8.158;2023-03-19T13:36:17;6.80;;;4.30;;
71187;SDS011;58893;53.130;8.158;2023-03-19T13:38:43;8.77;;;5.00;;
71187;SDS011;58893;53.130;8.158;2023-03-19T13:46:45;6.93;;;5.10;;
71187;SDS011;58893;53.130;8.158;2023-03-19T13:51:44;10.97;;;5.20;;
71187;SDS011;58893;53.130;8.158;2023-03-19T13:54:19;10.73;;;5.43;;
71187;SDS011;58893;53.130;8.158;2023-03-19T13:59:32;11.70;;;6.07;;
71187;SDS011;58893;53.130;8.158;2023-03-19T14:01:58;9.33;;;5.80;;
71187;SDS011;58893;53.130;8.158;2023-03-19T14:09:42;7.47;;;5.30;;
71187;SDS011;58893;53.130;8.158;2023-03-19T14:12:32;11.60;;;6.10;;
71187;SDS011;58893;53.130;8.158;2023-03-19T14:17:37;8.20;;;5.30;;
71187;SDS011;58893;53.130;8.158;2023-03-19T14:20:32;8.20;;;5.33;;
71187;SDS011;58893;53.130;8.158;2023-03-19T14:28:51;7.97;;;5.03;;
71187;SDS011;58893;53.130;8.158;2023-03-19T14:32:04;8.63;;;5.40;;
71187;SDS011;58893;53.130;8.158;2023-03-19T14:36:41;9.97;;;6.20;;
71187;SDS011;58893;53.130;8.158;2023-03-19T14:39:17;9.00;;;4.87;;
71187;SDS011;58893;53.130;8.158;2023-03-19T14:41:48;7.03;;;4.33;;
71187;SDS011;58893;53.130;8.158;2023-03-19T14:47:14;8.73;;;4.80;;
71187;SDS011;58893;53.130;8.158;2023-03-19T14:55:38;7.33;;;4.50;;
71187;SDS011;58893;53.130;8.158;2023-03-19T14:58:05;14.40;;;4.23;;
71187;SDS011;58893;53.130;8.158;2023-03-19T15:00:44;5.80;;;4.27;;
71187;SDS011;58893;53.130;8.158;2023-03-19T15:03:33;9.50;;;4.73;;
71187;SDS011;58893;53.130;8.158;2023-03-19T15:06:04;6.60;;;4.30;;
71187;SDS011;58893;53.130;8.158;2023-03-19T15:08:32;10.07;;;4.10;;
71187;SDS011;58893;53.130;8.158;2023-03-19T15:11:07;6.57;;;3.60;;
71187;SDS011;58893;53.130;8.158;2023-03-19T15:13:54;8.33;;;4.40;;
71187;SDS011;58893;53.130;8.158;2023-03-19T15:19:26;6.20;;;4.13;;
71187;SDS011;58893;53.130;8.158;2023-03-19T15:22:11;5.50;;;4.13;;
71187;SDS011;58893;53.130;8.158;2023-03-19T15:24:40;7.27;;;3.90;;
71187;SDS011;58893;53.130;8.158;2023-03-19T15:27:22;5.60;;;3.93;;
71187;SDS011;58893;53.130;8.158;2023-03-19T15:29:50;6.53;;;4.00;;
71187;SDS011;58893;53.130;8.158;2023-03-19T15:32:29;7.50;;;4.60;;
71187;SDS011;58893;53.130;8.158;2023-03-19T15:34:59;6.30;;;3.83;;
71187;SDS011;58893;53.130;8.158;2023-03-19T15:37:25;7.80;;;4.93;;
71187;SDS011;58893;53.130;8.158;2023-03-19T15:39:55;6.40;;;4.00;;
71187;SDS011;58893;53.130;8.158;2023-03-19T15:42:22;5.63;;;3.60;;
71187;SDS011;58893;53.130;8.158;2023-03-19T15:44:55;4.10;;;3.13;;
71187;SDS011;58893;53.130;8.158;2023-03-19T15:47:32;8.43;;;4.10;;
71187;SDS011;58893;53.130;8.158;2023-03-19T15:52:30;6.83;;;4.00;;
71187;SDS011;58893;53.130;8.158;2023-03-19T15:54:59;9.90;;;4.60;;
71187;SDS011;58893;53.130;8.158;2023-03-19T15:57:25;7.20;;;4.10;;
71187;SDS011;58893;53.130;8.158;2023-03-19T15:59:52;6.80;;;3.93;;
71187;SDS011;58893;53.130;8.158;2023-03-19T16:04:50;7.00;;;4.00;;
71187;SDS011;58893;53.130;8.158;2023-03-19T16:07:23;19.77;;;4.00;;
71187;SDS011;58893;53.130;8.158;2023-03-19T16:09:55;8.43;;;3.83;;
71187;SDS011;58893;53.130;8.158;2023-03-19T16:12:30;6.67;;;4.03;;
71187;SDS011;58893;53.130;8.158;2023-03-19T16:18:08;6.13;;;3.53;;
71187;SDS011;58893;53.130;8.158;2023-03-19T16:23:35;3.97;;;2.43;;
71187;SDS011;58893;53.130;8.158;2023-03-19T16:26:08;6.90;;;3.43;;
71187;SDS011;58893;53.130;8.158;2023-03-19T16:28:40;8.37;;;3.97;;
71187;SDS011;58893;53.130;8.158;2023-03-19T16:31:24;7.60;;;3.30;;
71187;SDS011;58893;53.130;8.158;2023-03-19T16:33:53;5.13;;;3.63;;
71187;SDS011;58893;53.130;8.158;2023-03-19T16:36:21;5.17;;;3.53;;
71187;SDS011;58893;53.130;8.158;2023-03-19T16:47:39;6.80;;;3.63;;
71187;SDS011;58893;53.130;8.158;2023-03-19T16:50:15;6.10;;;2.77;;
71187;SDS011;58893;53.130;8.158;2023-03-19T16:52:42;5.57;;;3.60;;
71187;SDS011;58893;53.130;8.158;2023-03-19T16:55:15;7.93;;;3.57;;
71187;SDS011;58893;53.130;8.158;2023-03-19T16:57:55;4.70;;;3.13;;
71187;SDS011;58893;53.130;8.158;2023-03-19T17:00:35;4.50;;;3.30;;
71187;SDS011;58893;53.130;8.158;2023-03-19T17:03:00;11.33;;;3.00;;
71187;SDS011;58893;53.130;8.158;2023-03-19T17:05:27;5.00;;;3.10;;
71187;SDS011;58893;53.130;8.158;2023-03-19T17:07:53;6.37;;;2.93;;
71187;SDS011;58893;53.130;8.158;2023-03-19T17:10:23;6.17;;;3.27;;
71187;SDS011;58893;53.130;8.158;2023-03-19T17:12:52;7.10;;;3.70;;
71187;SDS011;58893;53.130;8.158;2023-03-19T17:18:02;6.43;;;3.20;;
71187;SDS011;58893;53.130;8.158;2023-03-19T17:20:35;10.30;;;3.27;;